Time;durP1;ratioP1;P1;durP2;ratioP2;P2;SDS_P1;SDS_P2;PMS_P1;PMS_P2;Temp;Humidity;BMP_temperature;BMP_pressure;BME280_temperature;BME280_humidity;BME280_pressure;Samples;Min_cycle;Max_cycle;Signal;HPM_P1;HPM_P2
2023/06/23 00:00:11;;;;;;;5.10;3.33;;;;;;;;;;5054664;28;20131;-72
2023/06/23 00:02:38;;;;;;;7.85;3.65;;;;;;;;;;5055436;28;20424;-72
2023/06/23 00:05:05;;;;;;;7.22;4.00;;;;;;;;;;5053763;28;20076;-72
2023/06/23 00:07:31;;;;;;;6.68;3.45;;;;;;;;;;5052506;28;20044;-72
2023/06/23 00:09:57;;;;;;;7.63;3.72;;;;;;;;;;5049442;28;20051;-72
2023/06/23 00:12:24;;;;;;;9.68;4.10;;;;;;;;;;5053228;28;20032;-72
2023/06/23 00:14:50;;;;;;;6.75;4.30;;;;;;;;;;5051889;28;20113;-72
2023/06/23 00:17:16;;;;;;;9.32;4.03;;;;;;;;;;5052515;28;20048;-72
2023/06/23 00:19:42;;;;;;;5.72;3.70;;;;;;;;;;5050735;28;20066;-72
2023/06/23 00:22:08;;;;;;;7.72;3.92;;;;;;;;;;5051665;28;20051;-71
2023/06/23 00:24:34;;;;;;;8.23;4.05;;;;;;;;;;5054698;28;20048;-72
2023/06/23 00:27:01;;;;;;;7.10;4.20;;;;;;;;;;5051654;28;20048;-72
2023/06/23 00:29:27;;;;;;;6.93;3.88;;;;;;;;;;5053264;28;20507;-72
2023/06/23 00:31:53;;;;;;;8.45;3.97;;;;;;;;;;5053209;28;20036;-72
2023/06/23 00:34:19;;;;;;;5.45;3.30;;;;;;;;;;5052858;28;20079;-72
2023/06/23 00:36:45;;;;;;;8.13;3.92;;;;;;;;;;5052550;28;20040;-72
2023/06/23 00:39:11;;;;;;;10.98;4.00;;;;;;;;;;5052255;28;20101;-72
2023/06/23 00:41:37;;;;;;;6.25;3.72;;;;;;;;;;5052462;28;20076;-72
2023/06/23 00:44:07;;;;;;;9.23;3.80;;;;;;;;;;5053750;28;20743;-71
2023/06/23 00:46:33;;;;;;;9.80;3.80;;;;;;;;;;5051253;28;20032;-72
2023/06/23 00:49:00;;;;;;;9.23;4.00;;;;;;;;;;5054310;28;20430;-72
2023/06/23 00:51:26;;;;;;;11.20;4.00;;;;;;;;;;5044085;28;20056;-72
2023/06/23 00:53:54;;;;;;;9.32;4.10;;;;;;;;;;5049285;28;20040;-71
2023/06/23 00:56:24;;;;;;;6.85;3.78;;;;;;;;;;5051712;28;20564;-72
2023/06/23 00:58:50;;;;;;;6.03;3.55;;;;;;;;;;5048904;28;20081;-72
2023/06/23 01:01:16;;;;;;;9.82;3.90;;;;;;;;;;5048463;28;20760;-72
2023/06/23 01:03:43;;;;;;;6.45;3.40;;;;;;;;;;5052256;28;20532;-66
2023/06/23 01:06:16;;;;;;;6.68;3.40;;;;;;;;;;5051580;28;20044;-66
2023/06/23 01:09:01;;;;;;;6.75;3.60;;;;;;;;;;5050320;28;20052;-66
2023/06/23 01:11:34;;;;;;;10.68;4.25;;;;;;;;;;5050286;28;20044;-66
2023/06/23 01:14:07;;;;;;;5.80;3.23;;;;;;;;;;5046448;28;20048;-65
2023/06/23 01:16:44;;;;;;;7.82;4.10;;;;;;;;;;5048514;28;20040;-66
2023/06/23 01:19:29;;;;;;;7.57;3.60;;;;;;;;;;5048284;28;20051;-65
2023/06/23 01:22:06;;;;;;;9.32;3.72;;;;;;;;;;5045706;28;20430;-65
2023/06/23 01:24:35;;;;;;;4.53;3.22;;;;;;;;;;5050788;28;20364;-66
2023/06/23 01:27:14;;;;;;;10.82;3.60;;;;;;;;;;5050315;28;20072;-66
2023/06/23 01:29:42;;;;;;;7.25;3.33;;;;;;;;;;5050393;28;20392;-66
2023/06/23 01:32:11;;;;;;;5.72;3.28;;;;;;;;;;5051493;28;20155;-66
2023/06/23 01:34:41;;;;;;;10.00;3.90;;;;;;;;;;5048884;28;20125;-65
2023/06/23 01:37:18;;;;;;;9.88;4.13;;;;;;;;;;5047947;28;20043;-66
2023/06/23 01:39:47;;;;;;;6.47;3.13;;;;;;;;;;5051495;28;20500;-65
2023/06/23 01:42:15;;;;;;;6.32;3.55;;;;;;;;;;5052158;28;20404;-65
2023/06/23 01:44:45;;;;;;;9.48;3.80;;;;;;;;;;5051881;28;20119;-65
2023/06/23 01:47:15;;;;;;;8.07;4.32;;;;;;;;;;5048987;28;20183;-65
2023/06/23 01:49:43;;;;;;;8.95;4.03;;;;;;;;;;5051942;28;20071;-65
2023/06/23 01:52:10;;;;;;;8.45;3.70;;;;;;;;;;5049769;28;20032;-65
2023/06/23 01:54:39;;;;;;;6.00;3.42;;;;;;;;;;5050243;28;20036;-66
2023/06/23 01:57:06;;;;;;;15.32;3.80;;;;;;;;;;5050634;28;20080;-66
2023/06/23 01:59:33;;;;;;;7.38;3.53;;;;;;;;;;5050923;28;20040;-66
2023/06/23 02:02:00;;;;;;;8.70;3.97;;;;;;;;;;5049494;28;20040;-65
2023/06/23 02:04:28;;;;;;;9.70;3.35;;;;;;;;;;5051039;28;20044;-66
2023/06/23 02:06:55;;;;;;;5.28;3.30;;;;;;;;;;5051503;28;20048;-66
2023/06/23 02:09:25;;;;;;;11.48;4.47;;;;;;;;;;5049709;28;20040;-66
2023/06/23 02:11:53;;;;;;;6.97;3.50;;;;;;;;;;5050991;28;20047;-65
2023/06/23 02:14:19;;;;;;;6.97;3.25;;;;;;;;;;5048572;28;20052;-66
2023/06/23 02:16:46;;;;;;;7.32;3.65;;;;;;;;;;5048200;28;20230;-65
2023/06/23 02:19:13;;;;;;;7.72;3.58;;;;;;;;;;5049393;28;20043;-65
2023/06/23 02:21:40;;;;;;;7.15;3.30;;;;;;;;;;5048936;28;20048;-65
2023/06/23 02:24:07;;;;;;;5.72;3.38;;;;;;;;;;5052233;28;20045;-66
2023/06/23 02:26:34;;;;;;;5.70;3.30;;;;;;;;;;5051719;28;20066;-66
2023/06/23 02:29:01;;;;;;;6.53;3.63;;;;;;;;;;5055795;28;20405;-66
2023/06/23 02:31:27;;;;;;;7.63;3.70;;;;;;;;;;5054561;28;20495;-66
2023/06/23 02:33:53;;;;;;;7.70;4.18;;;;;;;;;;5052220;28;20048;-66
2023/06/23 02:36:23;;;;;;;8.02;4.28;;;;;;;;;;5052619;28;20078;-66
2023/06/23 02:38:50;;;;;;;9.70;4.20;;;;;;;;;;5052953;28;20044;-66
2023/06/23 02:41:17;;;;;;;11.77;4.15;;;;;;;;;;5052039;28;20040;-65
2023/06/23 02:43:47;;;;;;;8.55;4.22;;;;;;;;;;5051838;28;20455;-66
2023/06/23 02:46:15;;;;;;;7.65;4.00;;;;;;;;;;5047546;28;20036;-66
2023/06/23 02:48:42;;;;;;;11.18;4.07;;;;;;;;;;5052776;28;20044;-66
2023/06/23 02:51:10;;;;;;;6.65;3.90;;;;;;;;;;5052548;28;20102;-66
2023/06/23 02:53:41;;;;;;;9.82;3.63;;;;;;;;;;5051965;28;20106;-66
2023/06/23 02:56:12;;;;;;;8.65;3.55;;;;;;;;;;5049856;28;20169;-66
2023/06/23 02:58:38;;;;;;;12.25;3.70;;;;;;;;;;5049889;28;20403;-65
2023/06/23 03:01:05;;;;;;;7.57;3.70;;;;;;;;;;5048306;28;20069;-64
2023/06/23 03:03:33;;;;;;;9.95;3.35;;;;;;;;;;5045036;28;20171;-65
2023/06/23 03:05:59;;;;;;;13.23;3.40;;;;;;;;;;5048481;28;20094;-65
2023/06/23 03:08:26;;;;;;;7.30;3.80;;;;;;;;;;5047132;28;20036;-65
2023/06/23 03:10:52;;;;;;;10.90;3.88;;;;;;;;;;5049306;28;20883;-64
2023/06/23 03:13:18;;;;;;;8.90;4.40;;;;;;;;;;5049018;28;21381;-65
2023/06/23 03:15:48;;;;;;;8.90;4.10;;;;;;;;;;5047142;28;20040;-65
2023/06/23 03:18:20;;;;;;;9.45;4.78;;;;;;;;;;5048266;28;20091;-65
2023/06/23 03:20:51;;;;;;;11.82;4.38;;;;;;;;;;5048743;28;20044;-65
2023/06/23 03:23:18;;;;;;;6.43;4.10;;;;;;;;;;5050629;28;20397;-65
2023/06/23 03:25:48;;;;;;;5.97;4.20;;;;;;;;;;5047884;28;20052;-65
2023/06/23 03:28:25;;;;;;;12.93;4.43;;;;;;;;;;5048678;28;20036;-65
2023/06/23 03:30:58;;;;;;;7.80;4.07;;;;;;;;;;5049538;28;20107;-65
2023/06/23 03:33:41;;;;;;;13.15;4.70;;;;;;;;;;5049421;28;20565;-65
2023/06/23 03:36:13;;;;;;;18.15;5.43;;;;;;;;;;5046703;28;20037;-65
2023/06/23 03:38:54;;;;;;;13.55;5.07;;;;;;;;;;5050372;28;20044;-65
2023/06/23 03:41:20;;;;;;;8.82;4.78;;;;;;;;;;5051410;28;20045;-65
2023/06/23 03:43:51;;;;;;;12.55;4.80;;;;;;;;;;5049505;28;20045;-65
2023/06/23 03:46:23;;;;;;;12.05;5.10;;;;;;;;;;5048544;28;20086;-65
2023/06/23 03:48:52;;;;;;;9.63;4.50;;;;;;;;;;5047168;28;20079;-65
2023/06/23 03:51:19;;;;;;;9.63;4.15;;;;;;;;;;5024516;28;20136;-65
2023/06/23 03:53:46;;;;;;;8.05;4.70;;;;;;;;;;5040537;28;20535;-65
2023/06/23 03:56:12;;;;;;;7.97;4.65;;;;;;;;;;5046232;28;20044;-65
2023/06/23 03:58:39;;;;;;;12.90;5.65;;;;;;;;;;5046799;28;20044;-65
2023/06/23 04:01:06;;;;;;;11.23;5.18;;;;;;;;;;5049123;28;20048;-65
2023/06/23 04:03:33;;;;;;;9.93;5.28;;;;;;;;;;5044747;28;20078;-65
2023/06/23 04:06:00;;;;;;;7.22;4.85;;;;;;;;;;5048003;28;20041;-65
2023/06/23 04:08:29;;;;;;;10.50;5.88;;;;;;;;;;5044701;28;20041;-65
2023/06/23 04:10:56;;;;;;;10.60;4.60;;;;;;;;;;5049680;28;20045;-65
2023/06/23 04:13:22;;;;;;;9.23;5.05;;;;;;;;;;5046145;28;20237;-65
2023/06/23 04:15:50;;;;;;;11.25;4.80;;;;;;;;;;5045883;28;20040;-65
2023/06/23 04:18:17;;;;;;;9.30;4.75;;;;;;;;;;5047871;28;20078;-65
2023/06/23 04:20:44;;;;;;;8.02;4.32;;;;;;;;;;5047269;28;20135;-65
2023/06/23 04:23:11;;;;;;;8.65;4.72;;;;;;;;;;5048993;28;20032;-65
2023/06/23 04:25:38;;;;;;;14.35;4.78;;;;;;;;;;5051570;28;20043;-65
2023/06/23 04:28:05;;;;;;;9.70;4.57;;;;;;;;;;5051265;28;20063;-65
2023/06/23 04:30:33;;;;;;;6.60;4.30;;;;;;;;;;5039113;28;20044;-65
2023/06/23 04:32:59;;;;;;;8.07;4.47;;;;;;;;;;5051899;28;20156;-65
2023/06/23 04:35:25;;;;;;;8.18;4.75;;;;;;;;;;5048123;28;20644;-65
2023/06/23 04:38:03;;;;;;;11.63;4.70;;;;;;;;;;5051469;28;20047;-65
2023/06/23 04:40:29;;;;;;;11.75;5.30;;;;;;;;;;5048385;28;20045;-65
2023/06/23 04:43:15;;;;;;;11.30;5.32;;;;;;;;;;5048945;28;20040;-66
2023/06/23 04:45:42;;;;;;;15.25;4.93;;;;;;;;;;5047553;28;20518;-65
2023/06/23 04:48:11;;;;;;;7.32;4.68;;;;;;;;;;5046891;28;20050;-65
2023/06/23 04:50:39;;;;;;;13.98;4.65;;;;;;;;;;5048113;28;20132;-65
2023/06/23 04:53:09;;;;;;;12.63;4.90;;;;;;;;;;5047197;28;20072;-65
2023/06/23 04:55:36;;;;;;;10.98;4.70;;;;;;;;;;5047708;28;20045;-65
2023/06/23 04:58:04;;;;;;;6.95;4.65;;;;;;;;;;5048071;28;21720;-65
2023/06/23 05:00:31;;;;;;;10.23;4.90;;;;;;;;;;5047815;28;20045;-65
2023/06/23 05:02:58;;;;;;;9.38;5.07;;;;;;;;;;5047444;28;20044;-65
2023/06/23 05:05:26;;;;;;;7.85;5.00;;;;;;;;;;5047768;28;20045;-66
2023/06/23 05:07:52;;;;;;;13.43;4.93;;;;;;;;;;5046898;28;20048;-66
2023/06/23 05:10:23;;;;;;;11.70;4.90;;;;;;;;;;5045749;28;20040;-65
2023/06/23 05:12:51;;;;;;;12.25;5.43;;;;;;;;;;5051454;28;20044;-66
2023/06/23 05:15:18;;;;;;;9.80;5.22;;;;;;;;;;5052367;28;20037;-66
2023/06/23 05:17:45;;;;;;;15.23;5.80;;;;;;;;;;5046484;28;20036;-66
2023/06/23 05:20:12;;;;;;;8.55;4.80;;;;;;;;;;5047125;28;20040;-65
2023/06/23 05:22:39;;;;;;;12.07;5.28;;;;;;;;;;5045056;28;20630;-65
2023/06/23 05:25:07;;;;;;;9.60;4.82;;;;;;;;;;5044436;28;20044;-65
2023/06/23 05:27:34;;;;;;;9.13;5.20;;;;;;;;;;5040660;28;20111;-65
2023/06/23 05:30:01;;;;;;;11.63;5.60;;;;;;;;;;5043008;28;20659;-65
2023/06/23 05:32:32;;;;;;;11.55;5.30;;;;;;;;;;5044548;28;20653;-66
2023/06/23 05:35:00;;;;;;;12.15;4.80;;;;;;;;;;5053521;28;20155;-65
2023/06/23 05:37:27;;;;;;;10.57;4.57;;;;;;;;;;5042854;28;20890;-65
2023/06/23 05:39:54;;;;;;;8.70;4.90;;;;;;;;;;5043359;28;20595;-65
2023/06/23 05:42:20;;;;;;;8.55;5.25;;;;;;;;;;5045060;28;20488;-65
2023/06/23 05:44:46;;;;;;;8.80;5.32;;;;;;;;;;5047556;28;20134;-65
2023/06/23 05:47:15;;;;;;;10.98;4.95;;;;;;;;;;5045682;28;20059;-65
2023/06/23 05:49:42;;;;;;;8.05;5.00;;;;;;;;;;5043540;28;20642;-65
2023/06/23 05:52:11;;;;;;;10.73;5.13;;;;;;;;;;5042090;28;21607;-65
2023/06/23 05:54:38;;;;;;;12.52;4.80;;;;;;;;;;5043264;28;20137;-65
2023/06/23 05:57:06;;;;;;;12.63;5.22;;;;;;;;;;5042112;28;20480;-65
2023/06/23 05:59:39;;;;;;;13.57;4.75;;;;;;;;;;5044228;28;20033;-65
2023/06/23 06:02:06;;;;;;;17.50;5.32;;;;;;;;;;5041203;28;20051;-65
2023/06/23 06:04:33;;;;;;;10.60;5.00;;;;;;;;;;5040833;28;20465;-65
2023/06/23 06:07:00;;;;;;;14.60;5.68;;;;;;;;;;5037859;28;20036;-65
2023/06/23 06:09:28;;;;;;;12.05;5.57;;;;;;;;;;5041426;28;20040;-65
2023/06/23 06:11:54;;;;;;;12.77;5.13;;;;;;;;;;5042879;28;20241;-65
2023/06/23 06:14:22;;;;;;;28.98;6.63;;;;;;;;;;5020119;28;20044;-65
2023/06/23 06:16:49;;;;;;;8.70;5.10;;;;;;;;;;5044949;28;20488;-65
2023/06/23 06:19:17;;;;;;;10.63;5.15;;;;;;;;;;5045221;28;20041;-65
2023/06/23 06:21:44;;;;;;;8.50;4.65;;;;;;;;;;5044360;28;20044;-65
2023/06/23 06:24:12;;;;;;;13.68;6.20;;;;;;;;;;5047333;28;20178;-66
2023/06/23 06:26:38;;;;;;;13.27;5.20;;;;;;;;;;5046316;28;20072;-65
2023/06/23 06:29:05;;;;;;;9.85;5.35;;;;;;;;;;5048641;28;20996;-65
2023/06/23 06:31:33;;;;;;;10.30;5.43;;;;;;;;;;5044671;28;20051;-65
2023/06/23 06:34:00;;;;;;;9.02;4.82;;;;;;;;;;5048810;28;20040;-65
2023/06/23 06:36:27;;;;;;;14.18;5.43;;;;;;;;;;5049074;28;20593;-65
2023/06/23 06:38:54;;;;;;;9.05;5.05;;;;;;;;;;5046941;28;20040;-65
2023/06/23 06:41:21;;;;;;;7.55;4.32;;;;;;;;;;5047294;28;20056;-65
2023/06/23 06:43:47;;;;;;;13.32;5.20;;;;;;;;;;5046930;28;20514;-65
2023/06/23 06:46:14;;;;;;;7.40;3.72;;;;;;;;;;5046230;28;20048;-65
2023/06/23 06:48:42;;;;;;;9.15;4.13;;;;;;;;;;5046072;28;20093;-65
2023/06/23 06:51:08;;;;;;;7.70;4.22;;;;;;;;;;5046853;28;20803;-65
2023/06/23 06:53:34;;;;;;;5.13;3.33;;;;;;;;;;5046590;28;20048;-65
2023/06/23 06:56:00;;;;;;;10.48;3.78;;;;;;;;;;5046373;28;20045;-65
2023/06/23 06:58:27;;;;;;;5.93;3.28;;;;;;;;;;5049359;28;20135;-65
2023/06/23 07:00:53;;;;;;;5.80;3.88;;;;;;;;;;5051143;28;20048;-65
2023/06/23 07:03:20;;;;;;;8.05;3.67;;;;;;;;;;5050665;28;20041;-65
2023/06/23 07:05:46;;;;;;;7.65;3.45;;;;;;;;;;5047299;28;20044;-65
2023/06/23 07:08:12;;;;;;;6.55;4.15;;;;;;;;;;5047716;28;20181;-65
2023/06/23 07:10:38;;;;;;;7.07;3.22;;;;;;;;;;5057512;28;20542;-65
2023/06/23 07:13:04;;;;;;;8.73;3.30;;;;;;;;;;5056710;28;20063;-65
2023/06/23 07:15:31;;;;;;;6.53;3.58;;;;;;;;;;5056007;28;20037;-65
2023/06/23 07:17:57;;;;;;;5.10;3.50;;;;;;;;;;5052434;28;20269;-65
2023/06/23 07:20:23;;;;;;;6.82;3.33;;;;;;;;;;5052223;28;20131;-65
2023/06/23 07:22:49;;;;;;;4.97;3.72;;;;;;;;;;5054504;28;20519;-65
2023/06/23 07:25:16;;;;;;;4.30;3.40;;;;;;;;;;5051598;28;20212;-66
2023/06/23 07:27:42;;;;;;;7.53;3.50;;;;;;;;;;5051741;28;20055;-66
2023/06/23 07:30:08;;;;;;;9.20;3.00;;;;;;;;;;5056008;28;20063;-65
2023/06/23 07:32:34;;;;;;;4.57;2.75;;;;;;;;;;5054246;28;20044;-66
2023/06/23 07:35:00;;;;;;;5.40;3.08;;;;;;;;;;5050755;28;20033;-65
2023/06/23 07:37:26;;;;;;;5.25;3.60;;;;;;;;;;5048164;28;20052;-72
2023/06/23 07:39:53;;;;;;;5.65;3.90;;;;;;;;;;5052895;28;21897;-73
2023/06/23 07:42:19;;;;;;;5.93;3.95;;;;;;;;;;5051451;28;20552;-72
2023/06/23 07:44:45;;;;;;;7.05;3.72;;;;;;;;;;5052062;28;20053;-72
2023/06/23 07:47:12;;;;;;;5.93;3.78;;;;;;;;;;5051045;28;20044;-72
2023/06/23 07:49:38;;;;;;;7.13;3.90;;;;;;;;;;5047395;28;20132;-71
2023/06/23 07:52:05;;;;;;;4.55;3.30;;;;;;;;;;5048529;28;20048;-72
2023/06/23 07:54:31;;;;;;;6.65;3.75;;;;;;;;;;5046524;28;20041;-71
2023/06/23 07:56:57;;;;;;;5.97;3.17;;;;;;;;;;5048588;28;20044;-72
2023/06/23 07:59:26;;;;;;;3.72;3.25;;;;;;;;;;5051721;28;20039;-71
2023/06/23 08:01:53;;;;;;;4.07;3.17;;;;;;;;;;5046967;28;20730;-71
2023/06/23 08:04:20;;;;;;;4.93;3.40;;;;;;;;;;5047000;28;20041;-72
2023/06/23 08:06:46;;;;;;;6.20;4.05;;;;;;;;;;5049014;28;20087;-72
2023/06/23 08:09:12;;;;;;;4.35;3.28;;;;;;;;;;5043674;28;20983;-72
2023/06/23 08:11:38;;;;;;;4.43;3.13;;;;;;;;;;5026675;28;20128;-71
2023/06/23 08:14:05;;;;;;;4.55;3.63;;;;;;;;;;5047662;28;20037;-71
2023/06/23 08:16:31;;;;;;;6.85;3.63;;;;;;;;;;5049010;28;20036;-71
2023/06/23 08:18:57;;;;;;;5.63;3.40;;;;;;;;;;5045166;28;20032;-71
2023/06/23 08:21:23;;;;;;;5.88;3.13;;;;;;;;;;5047797;28;20050;-71
2023/06/23 08:23:49;;;;;;;4.22;3.42;;;;;;;;;;5048218;28;20055;-71
2023/06/23 08:26:16;;;;;;;5.13;3.10;;;;;;;;;;5045667;28;20048;-71
2023/06/23 08:28:42;;;;;;;8.00;3.50;;;;;;;;;;5047442;28;20041;-71
2023/06/23 08:31:08;;;;;;;9.00;3.65;;;;;;;;;;5045782;28;20090;-72
2023/06/23 08:33:34;;;;;;;11.32;3.42;;;;;;;;;;5050112;28;20236;-70
2023/06/23 08:36:00;;;;;;;4.57;3.33;;;;;;;;;;5054463;28;20075;-71
2023/06/23 08:38:26;;;;;;;4.85;3.08;;;;;;;;;;5055793;28;20044;-71
2023/06/23 08:40:55;;;;;;;4.13;3.25;;;;;;;;;;5049730;28;20503;-71
2023/06/23 08:43:25;;;;;;;7.32;3.85;;;;;;;;;;5050553;28;20855;-71
2023/06/23 08:45:56;;;;;;;4.30;3.20;;;;;;;;;;5052105;28;20157;-72
2023/06/23 08:48:25;;;;;;;5.18;3.30;;;;;;;;;;5050595;28;20047;-71
2023/06/23 08:50:52;;;;;;;3.92;3.10;;;;;;;;;;5055496;28;20057;-71
2023/06/23 08:53:20;;;;;;;7.05;3.67;;;;;;;;;;5054737;28;20428;-71
2023/06/23 08:55:46;;;;;;;4.75;3.10;;;;;;;;;;5065450;28;20040;-72
2023/06/23 08:58:12;;;;;;;8.60;3.28;;;;;;;;;;5066995;28;20136;-72
2023/06/23 09:00:38;;;;;;;5.50;3.55;;;;;;;;;;5068589;28;20037;-70
2023/06/23 09:03:05;;;;;;;6.00;3.63;;;;;;;;;;5060479;28;20040;-72
2023/06/23 09:05:31;;;;;;;6.25;3.30;;;;;;;;;;5058393;28;20041;-72
2023/06/23 09:07:57;;;;;;;5.57;3.30;;;;;;;;;;5057705;28;20059;-71
2023/06/23 09:10:24;;;;;;;4.38;3.78;;;;;;;;;;5055481;28;20049;-71
2023/06/23 09:13:11;;;;;;;5.30;3.38;;;;;;;;;;5053148;28;20076;-71
2023/06/23 09:15:38;;;;;;;3.70;3.13;;;;;;;;;;5045277;28;20048;-72
2023/06/23 09:18:05;;;;;;;4.32;3.22;;;;;;;;;;5051274;28;20427;-71
2023/06/23 09:20:31;;;;;;;4.65;4.13;;;;;;;;;;5052934;28;20044;-71
2023/06/23 09:22:58;;;;;;;8.10;4.05;;;;;;;;;;5053159;28;20048;-71
2023/06/23 09:25:56;;;;;;;6.85;4.05;;;;;;;;;;5047863;28;20047;-71
2023/06/23 09:28:36;;;;;;;5.97;4.22;;;;;;;;;;5013950;28;20102;-69
2023/06/23 09:31:08;;;;;;;7.10;3.47;;;;;;;;;;5050351;28;20048;-70
2023/06/23 09:33:34;;;;;;;4.80;3.50;;;;;;;;;;5046403;28;20058;-70
2023/06/23 09:36:04;;;;;;;4.03;3.33;;;;;;;;;;5047926;28;20041;-70
2023/06/23 09:38:35;;;;;;;6.03;3.17;;;;;;;;;;5050021;28;20489;-70
2023/06/23 09:41:11;;;;;;;4.15;2.97;;;;;;;;;;5051606;28;20423;-71
2023/06/23 09:43:40;;;;;;;5.55;2.80;;;;;;;;;;5049267;28;20048;-72
2023/06/23 09:46:07;;;;;;;4.20;3.30;;;;;;;;;;5049515;28;20040;-69
2023/06/23 09:48:33;;;;;;;5.70;3.20;;;;;;;;;;5047294;28;20115;-69
2023/06/23 09:50:59;;;;;;;3.80;3.05;;;;;;;;;;5047054;28;20055;-70
2023/06/23 09:53:25;;;;;;;4.82;2.92;;;;;;;;;;5049336;28;20052;-71
2023/06/23 09:55:51;;;;;;;3.92;3.50;;;;;;;;;;5049599;28;20037;-70
2023/06/23 09:58:18;;;;;;;5.35;3.30;;;;;;;;;;5050343;28;20116;-70
2023/06/23 10:00:44;;;;;;;4.20;3.13;;;;;;;;;;5051911;28;20059;-70
2023/06/23 10:03:10;;;;;;;5.10;3.30;;;;;;;;;;5050025;28;20122;-69
2023/06/23 10:05:37;;;;;;;4.13;3.40;;;;;;;;;;5048119;28;20032;-70
2023/06/23 10:08:07;;;;;;;5.05;2.83;;;;;;;;;;5045846;28;20049;-70
2023/06/23 10:10:33;;;;;;;4.68;2.97;;;;;;;;;;5045983;28;20040;-71
2023/06/23 10:13:00;;;;;;;3.45;3.08;;;;;;;;;;5049022;28;20043;-71
2023/06/23 10:15:28;;;;;;;5.00;3.33;;;;;;;;;;5046701;28;20680;-71
2023/06/23 10:17:55;;;;;;;4.03;3.10;;;;;;;;;;5044376;28;20477;-71
2023/06/23 10:20:21;;;;;;;8.13;3.35;;;;;;;;;;5047774;28;20052;-71
2023/06/23 10:22:47;;;;;;;6.07;3.63;;;;;;;;;;5046343;28;20361;-70
2023/06/23 10:25:13;;;;;;;5.82;3.35;;;;;;;;;;5044261;28;20448;-71
2023/06/23 10:27:41;;;;;;;6.18;2.80;;;;;;;;;;5049833;28;20044;-70
2023/06/23 10:30:10;;;;;;;3.10;2.78;;;;;;;;;;5047035;28;20067;-70
2023/06/23 10:32:36;;;;;;;3.60;3.13;;;;;;;;;;5052702;28;20048;-71
2023/06/23 10:35:08;;;;;;;6.30;3.10;;;;;;;;;;5049653;28;20044;-71
2023/06/23 10:37:34;;;;;;;5.45;3.30;;;;;;;;;;5048279;28;20051;-71
2023/06/23 10:40:04;;;;;;;5.00;3.13;;;;;;;;;;5044775;28;20040;-71
2023/06/23 10:42:33;;;;;;;6.60;3.08;;;;;;;;;;5046620;28;20648;-71
2023/06/23 10:44:59;;;;;;;5.28;3.38;;;;;;;;;;5046993;28;20147;-71
2023/06/23 10:47:25;;;;;;;4.13;3.20;;;;;;;;;;5050009;28;20495;-72
2023/06/23 10:49:51;;;;;;;3.17;2.85;;;;;;;;;;5057849;28;20032;-71
2023/06/23 10:52:17;;;;;;;3.20;2.90;;;;;;;;;;5051419;28;20036;-71
2023/06/23 10:54:44;;;;;;;4.93;3.33;;;;;;;;;;5058970;28;20510;-72
2023/06/23 10:57:10;;;;;;;5.18;3.40;;;;;;;;;;5058621;28;20033;-72
2023/06/23 10:59:40;;;;;;;3.70;3.25;;;;;;;;;;5055647;28;20072;-71
2023/06/23 11:02:10;;;;;;;6.85;3.63;;;;;;;;;;5053470;28;20042;-71
2023/06/23 11:04:38;;;;;;;6.82;3.80;;;;;;;;;;5058606;28;20341;-71
2023/06/23 11:07:09;;;;;;;6.28;3.97;;;;;;;;;;5056996;28;20028;-71
2023/06/23 11:10:01;;;;;;;5.97;3.60;;;;;;;;;;5057144;28;20057;-72
2023/06/23 11:12:47;;;;;;;4.68;3.35;;;;;;;;;;5054752;28;20095;-72
2023/06/23 11:15:20;;;;;;;4.07;3.47;;;;;;;;;;5056907;28;20051;-72
2023/06/23 11:17:47;;;;;;;4.50;3.55;;;;;;;;;;5055916;28;20418;-72
2023/06/23 11:20:29;;;;;;;6.93;3.90;;;;;;;;;;5057034;28;20036;-72
2023/06/23 11:22:56;;;;;;;5.95;3.90;;;;;;;;;;5058250;28;20044;-72
2023/06/23 11:25:39;;;;;;;5.25;4.18;;;;;;;;;;5057183;28;20433;-72
2023/06/23 11:28:33;;;;;;;7.63;4.97;;;;;;;;;;5055040;28;20378;-71
2023/06/23 11:31:06;;;;;;;6.88;3.65;;;;;;;;;;5055138;28;20040;-72
2023/06/23 11:33:39;;;;;;;8.20;4.47;;;;;;;;;;5057459;28;20049;-72
2023/06/23 11:36:09;;;;;;;4.97;3.80;;;;;;;;;;5056281;28;20113;-71
2023/06/23 11:38:36;;;;;;;5.03;4.60;;;;;;;;;;5057296;28;20059;-72
2023/06/23 11:41:02;;;;;;;5.38;4.55;;;;;;;;;;5055510;28;20067;-72
2023/06/23 11:43:35;;;;;;;5.50;4.68;;;;;;;;;;5055126;28;20048;-72
2023/06/23 11:46:11;;;;;;;10.68;4.60;;;;;;;;;;5055962;28;20811;-72
2023/06/23 11:48:37;;;;;;;4.93;4.10;;;;;;;;;;5055197;28;20044;-72
2023/06/23 11:51:06;;;;;;;5.25;4.25;;;;;;;;;;5056886;28;20848;-72
2023/06/23 11:53:32;;;;;;;8.80;4.32;;;;;;;;;;5056544;28;20044;-71
2023/06/23 11:55:59;;;;;;;4.70;3.97;;;;;;;;;;5056038;28;20119;-72
2023/06/23 11:58:29;;;;;;;5.32;4.20;;;;;;;;;;5056416;28;20037;-72
2023/06/23 12:00:55;;;;;;;4.90;4.30;;;;;;;;;;5056391;28;20737;-72
2023/06/23 12:03:21;;;;;;;4.75;4.25;;;;;;;;;;5053086;28;20436;-72
2023/06/23 12:05:47;;;;;;;5.18;3.95;;;;;;;;;;5047100;28;21673;-72
2023/06/23 12:08:13;;;;;;;4.78;4.38;;;;;;;;;;5055957;28;20055;-72
2023/06/23 12:10:40;;;;;;;5.50;4.10;;;;;;;;;;5037798;28;20573;-71
2023/06/23 12:13:09;;;;;;;5.07;4.50;;;;;;;;;;5054607;28;20052;-72
2023/06/23 12:15:41;;;;;;;6.05;4.40;;;;;;;;;;5055615;28;20119;-72
2023/06/23 12:18:08;;;;;;;5.10;4.50;;;;;;;;;;5055287;28;20099;-72
2023/06/23 12:20:35;;;;;;;8.80;4.63;;;;;;;;;;5055914;28;21092;-72
2023/06/23 12:23:05;;;;;;;5.00;4.30;;;;;;;;;;5054856;28;20052;-72
2023/06/23 12:25:35;;;;;;;5.97;4.53;;;;;;;;;;5055135;28;20541;-72
2023/06/23 12:28:03;;;;;;;5.03;4.25;;;;;;;;;;5056717;28;20040;-72
2023/06/23 12:30:43;;;;;;;6.13;4.30;;;26.20;99.90;;;;;;5053760;28;20076;-72
2023/06/23 12:33:13;;;;;;;6.15;3.83;;;;;;;;;;5050731;28;20044;-71
2023/06/23 12:35:39;;;;;;;7.53;4.45;;;;;;;;;;5056949;28;20037;-72
2023/06/23 12:38:07;;;;;;;8.40;4.70;;;;;;;;;;5056189;28;20046;-72
2023/06/23 12:40:34;;;;;;;8.23;4.80;;;;;;;;;;5058915;28;20094;-72
2023/06/23 12:43:01;;;;;;;7.07;4.43;;;;;;;;;;5062764;28;20097;-72
2023/06/23 12:45:27;;;;;;;4.18;3.80;;;;;;;;;;5065956;28;20040;-71
2023/06/23 12:47:54;;;;;;;6.22;4.50;;;;;;;;;;5056859;28;20044;-72
2023/06/23 12:50:33;;;;;;;4.63;3.88;;;;;;;;;;5057164;28;20056;-72
2023/06/23 12:52:59;;;;;;;5.30;3.70;;;;;;;;;;5074485;28;20044;-72
2023/06/23 12:55:25;;;;;;;4.95;3.72;;;;;;;;;;5077968;28;20040;-71
2023/06/23 12:57:52;;;;;;;5.22;4.30;;;;;;;;;;5078637;28;20128;-72
2023/06/23 13:00:18;;;;;;;5.63;3.78;;;;;;;;;;5069528;28;20057;-71
2023/06/23 13:02:45;;;;;;;4.97;3.90;;;;;;;;;;5064966;28;20051;-72
2023/06/23 13:05:11;;;;;;;10.40;4.00;;;;;;;;;;5058412;28;20062;-72
2023/06/23 13:07:37;;;;;;;5.78;4.20;;;;;;;;;;5056295;28;20048;-71
2023/06/23 13:10:06;;;;;;;5.13;3.88;;;;;;;;;;5055633;28;20150;-72
2023/06/23 13:12:36;;;;;;;4.95;3.63;;;;;;;;;;5054374;28;20068;-72
2023/06/23 13:15:03;;;;;;;4.70;3.67;;;;;;;;;;5054066;28;20060;-73
2023/06/23 13:17:29;;;;;;;5.57;3.50;;;;;;;;;;5054843;28;20048;-72
2023/06/23 13:19:56;;;;;;;4.85;3.70;;;;;;;;;;5054895;28;20059;-71
2023/06/23 13:22:22;;;;;;;8.02;3.88;;;;;;;;;;5055251;28;20173;-72
2023/06/23 13:24:48;;;;;;;6.65;3.95;;;;;;;;;;5053486;28;20052;-72
2023/06/23 13:27:14;;;;;;;7.05;3.70;;;;;;;;;;5054516;28;20829;-72
2023/06/23 13:29:41;;;;;;;5.80;3.90;;;;;;;;;;5054835;28;20119;-72
2023/06/23 13:32:08;;;;;;;7.03;3.70;;;;;;;;;;5053924;28;20135;-72
2023/06/23 13:34:37;;;;;;;6.55;3.22;;;;;;;;;;5053999;28;20117;-72
2023/06/23 13:37:03;;;;;;;4.78;2.80;;;;;;;;;;5055383;28;20040;-72
2023/06/23 13:39:30;;;;;;;8.10;3.33;;;;;;;;;;5052521;28;20044;-72
2023/06/23 13:41:56;;;;;;;4.57;2.83;;;;;;;;;;5056295;28;20075;-72
2023/06/23 13:44:22;;;;;;;4.82;2.60;;;;;;;;;;5054570;28;20176;-72
2023/06/23 13:46:48;;;;;;;4.80;2.80;;;;;;;;;;5054232;28;20117;-72
2023/06/23 13:49:14;;;;;;;4.32;2.35;;;;;;;;;;5054016;28;20040;-72
2023/06/23 13:51:41;;;;;;;4.82;2.60;;;;;;;;;;5053287;28;20105;-72
2023/06/23 13:54:07;;;;;;;5.63;2.95;;;;;;;;;;5054259;28;20063;-72
2023/06/23 13:56:33;;;;;;;4.10;2.65;;;;;;;;;;5054808;28;20037;-72
2023/06/23 13:58:59;;;;;;;5.35;2.50;;;;;;;;;;5054911;28;20408;-72
2023/06/23 14:01:26;;;;;;;6.57;2.50;;;;;;;;;;5057520;28;20040;-73
2023/06/23 14:03:52;;;;;;;4.55;3.05;;;;;;;;;;5054132;28;20036;-71
2023/06/23 14:06:18;;;;;;;3.42;2.55;;;;;;;;;;5056780;28;20044;-72
2023/06/23 14:08:45;;;;;;;6.78;2.40;;;;;;;;;;5056610;28;20040;-72
2023/06/23 14:11:11;;;;;;;7.50;2.70;;;;;;;;;;5053567;28;20080;-72
2023/06/23 14:13:38;;;;;;;6.70;2.90;;;;;;;;;;5055061;28;20158;-72
2023/06/23 14:16:05;;;;;;;4.18;2.67;;;;;;;;;;5050212;28;20139;-72
2023/06/23 14:18:32;;;;;;;4.55;2.08;;;;;;;;;;5054855;28;20156;-72
2023/06/23 14:20:58;;;;;;;5.55;1.95;;;;;;;;;;5057525;28;20048;-72
2023/06/23 14:23:24;;;;;;;2.90;1.75;;;;;;;;;;5060877;28;20118;-73
2023/06/23 14:25:50;;;;;;;10.93;2.20;;;;;;;;;;5059865;28;20044;-73
2023/06/23 14:28:16;;;;;;;7.28;2.03;;;;;;;;;;5055903;28;20556;-72
2023/06/23 14:30:42;;;;;;;6.82;1.90;;;;;;;;;;5048376;28;20526;-72
2023/06/23 14:33:09;;;;;;;4.47;2.35;;;;;;;;;;5056170;28;20036;-72
2023/06/23 14:35:35;;;;;;;5.75;2.60;;;;;;;;;;5056572;28;20353;-72
2023/06/23 14:38:05;;;;;;;3.15;2.05;;;;;;;;;;5058253;28;20614;-71
2023/06/23 14:40:32;;;;;;;4.07;2.13;;;;;;;;;;5057113;28;20045;-72
2023/06/23 14:42:58;;;;;;;4.93;1.95;;;;;;;;;;5056626;28;20785;-72
2023/06/23 14:45:24;;;;;;;5.35;2.25;;;;;;;;;;5055246;28;20129;-72